Startpagina
METAR-TAF:

METAR-TAF

Vliegvelden :

Pietersburg, Zuid-Afrika

breedte: 23-50-43S, lengte: 29-27-31E, hoogte: 1242 m

Actueel weer

Dit bericht is 1 uur en het 6 minuten geleden gemaakt, om 14:00 UTC
Wind 12 kt uit het noordoosten
Temperatuur 13°C
Vochtigheid 41%
Druk 1028 hPa
Zicht 10 km of meer
Weinig wolken op 3000 ft

METAR: FAPP 211400Z 04012KT 9999 FEW030 13/M00 Q1028 NOSIG

Tijdstip: 17:06 (15:06 UTC)

Verwachting

Dit bericht is 6 uur en het 6 minuten geleden gemaakt, om 09:00 UTC
Verwachting geldig van 21 om 10 UTC tot 21 om 18 UTC
Wind 10 kt uit het noordnoordoosten
Zicht 10 km of meer
Verspreide wolken op 2500 ft
Wijzigt naar
van 21 om 15 UTC tot 21 om 17 UTC
Zicht 10 km of meer
geen wolken onder 1500 m en geen cumulonimbus

TAF: FAPP 210900Z 2110/2118 03010KT 9999 SCT025 TX17/2112Z TN09/2118Z BECMG 2115/2117 CAVOK

Waarnemingen en weersverwachtingen van meer dan 4000 vliegvelden (METAR en TAF).

De beschikbare stations zijn de gele en rode punten op de kaart.

Ga met uw muis naar het station om de naam te zien.

Klik dan om waarnemingen en weersverwachtingen te zien.

kaart wijzigen: klik op de groene knoppen met een zwart kruis om in te zoomen, op de groene knop met een streepje om uit te zoomen of op de groene pijlen voor aangrenzende kaarten.


METAR-TAF: